createdAt,value
2022-08-28T00:00:40.424Z,100457.80
2022-08-28T00:03:12.184Z,100458.40
2022-08-28T00:05:42.242Z,100459.40
2022-08-28T00:08:14.859Z,100455.00
2022-08-28T00:10:44.411Z,100452.80
2022-08-28T00:13:19.076Z,100451.20
2022-08-28T00:15:51.484Z,100450.20
2022-08-28T00:18:20.044Z,100449.60
2022-08-28T00:20:52.727Z,100451.60
2022-08-28T00:23:22.020Z,100447.20
2022-08-28T00:25:49.945Z,100449.80
2022-08-28T00:28:24.162Z,100444.40
2022-08-28T00:30:58.609Z,100446.40
2022-08-28T00:33:33.423Z,100447.60
2022-08-28T00:36:03.801Z,100449.80
2022-08-28T00:38:35.182Z,100447.00
2022-08-28T00:41:04.936Z,100445.00
2022-08-28T00:43:42.428Z,100445.80
2022-08-28T00:46:24.241Z,100442.80
2022-08-28T00:48:52.662Z,100440.80
2022-08-28T00:51:42.404Z,100437.20
2022-08-28T00:54:10.316Z,100436.60
2022-08-28T00:56:41.014Z,100434.80
2022-08-28T00:59:17.717Z,100438.20
2022-08-28T01:01:48.933Z,100433.60
2022-08-28T01:04:20.857Z,100434.00
2022-08-28T01:06:57.118Z,100430.40
2022-08-28T01:09:30.833Z,100435.00
2022-08-28T01:12:09.316Z,100436.40
2022-08-28T01:14:41.882Z,100439.80
2022-08-28T01:17:11.215Z,100441.40
2022-08-28T01:19:57.350Z,100435.60
2022-08-28T01:22:45.051Z,100435.20
2022-08-28T01:25:21.392Z,100436.60
2022-08-28T01:27:49.162Z,100432.80
2022-08-28T01:30:21.815Z,100432.80
2022-08-28T01:32:55.904Z,100429.80
2022-08-28T01:35:33.402Z,100428.00
2022-08-28T01:38:05.107Z,100427.40
2022-08-28T01:40:41.744Z,100428.20
2022-08-28T01:43:26.706Z,100426.80
2022-08-28T01:46:02.024Z,100424.20
2022-08-28T01:48:33.926Z,100432.60
2022-08-28T01:51:04.461Z,100428.80
2022-08-28T01:53:33.252Z,100427.60
2022-08-28T01:56:08.153Z,100429.00
2022-08-28T01:58:38.293Z,100430.20
2022-08-28T02:01:17.648Z,100432.40
2022-08-28T02:03:46.471Z,100429.80
2022-08-28T02:06:16.686Z,100425.20
2022-08-28T02:08:46.036Z,100429.40
2022-08-28T02:11:14.151Z,100431.80
2022-08-28T02:13:42.407Z,100420.20
2022-08-28T02:16:11.749Z,100418.00
2022-08-28T02:18:40.270Z,100419.00
2022-08-28T02:21:10.502Z,100423.20
2022-08-28T02:23:42.742Z,100422.80
2022-08-28T02:26:12.825Z,100420.60
2022-08-28T02:28:41.357Z,100418.60
2022-08-28T02:31:11.444Z,100421.40
2022-08-28T02:33:43.632Z,100421.60
2022-08-28T02:36:15.628Z,100422.40
2022-08-28T02:38:45.951Z,100420.80
2022-08-28T02:41:14.408Z,100423.20
2022-08-28T02:43:42.353Z,100419.00
2022-08-28T02:46:10.565Z,100423.40
2022-08-28T02:48:40.684Z,100422.80
2022-08-28T02:51:13.452Z,100421.40
2022-08-28T02:53:42.635Z,100417.80
2022-08-28T02:56:10.843Z,100411.20
2022-08-28T02:58:40.126Z,100410.80
2022-08-28T03:01:12.101Z,100406.80
2022-08-28T03:03:41.472Z,100403.60
2022-08-28T03:06:12.784Z,100403.40
2022-08-28T03:08:42.944Z,100401.20
2022-08-28T03:11:12.140Z,100398.00
2022-08-28T03:13:40.120Z,100396.60
2022-08-28T03:16:08.596Z,100400.40
2022-08-28T03:18:36.837Z,100401.40
2022-08-28T03:21:05.861Z,100402.20
2022-08-28T03:23:34.587Z,100405.20
2022-08-28T03:26:12.761Z,100408.40
2022-08-28T03:28:48.688Z,100403.00
2022-08-28T03:31:22.584Z,100401.60
2022-08-28T03:33:52.300Z,100399.60
2022-08-28T03:36:25.861Z,100400.00
2022-08-28T03:38:57.701Z,100399.40
2022-08-28T03:41:29.313Z,100399.20
2022-08-28T03:44:00.094Z,100399.80
2022-08-28T03:46:34.962Z,100401.60
2022-08-28T03:49:05.351Z,100408.40
2022-08-28T03:51:35.021Z,100404.20
2022-08-28T03:54:04.614Z,100402.20
2022-08-28T03:56:34.924Z,100400.00
2022-08-28T03:59:05.502Z,100400.00
2022-08-28T04:01:33.831Z,100392.80
2022-08-28T04:04:02.240Z,100397.00
2022-08-28T04:06:30.777Z,100400.40
2022-08-28T04:09:00.248Z,100398.60
2022-08-28T04:11:29.266Z,100401.80
2022-08-28T04:13:58.013Z,100403.60
2022-08-28T04:16:26.010Z,100402.80
2022-08-28T04:18:54.316Z,100405.40
2022-08-28T04:21:24.696Z,100404.80
2022-08-28T04:23:53.993Z,100403.00
2022-08-28T04:26:26.212Z,100407.80
2022-08-28T04:28:55.872Z,100403.40
2022-08-28T04:31:31.740Z,100406.20
2022-08-28T04:34:03.296Z,100404.00
2022-08-28T04:36:33.818Z,100397.80
2022-08-28T04:39:05.252Z,100397.60
2022-08-28T04:41:33.111Z,100393.80
2022-08-28T04:44:00.871Z,100395.60
2022-08-28T04:46:31.035Z,100400.00
2022-08-28T04:49:00.337Z,100392.60
2022-08-28T04:51:29.252Z,100391.00
2022-08-28T04:53:58.328Z,100385.80
2022-08-28T04:56:27.135Z,100388.00
2022-08-28T04:58:55.212Z,100392.00
2022-08-28T05:01:25.080Z,100395.20
2022-08-28T05:04:02.422Z,100395.00
2022-08-28T05:06:33.879Z,100390.40
2022-08-28T05:09:04.207Z,100393.40
2022-08-28T05:11:34.265Z,100396.20
2022-08-28T05:14:06.602Z,100399.20
2022-08-28T05:16:43.320Z,100398.20
2022-08-28T05:19:12.533Z,100400.60
2022-08-28T05:21:40.767Z,100401.00
2022-08-28T05:24:09.286Z,100400.00
2022-08-28T05:26:40.058Z,100400.60
2022-08-28T05:29:10.104Z,100408.40
2022-08-28T05:31:41.223Z,100408.00
2022-08-28T05:34:10.630Z,100404.80
2022-08-28T05:36:40.049Z,100407.00
2022-08-28T05:39:12.267Z,100409.80
2022-08-28T05:41:43.380Z,100406.00
2022-08-28T05:44:18.563Z,100406.20
2022-08-28T05:46:48.680Z,100409.20
2022-08-28T05:49:19.711Z,100410.60
2022-08-28T05:51:49.350Z,100411.40
2022-08-28T05:54:17.813Z,100414.00
2022-08-28T05:56:46.433Z,100414.80
2022-08-28T05:59:16.123Z,100415.60
2022-08-28T06:01:49.914Z,100416.80
2022-08-28T06:04:25.846Z,100420.20
2022-08-28T06:06:55.186Z,100417.00
2022-08-28T06:09:29.613Z,100414.60
2022-08-28T06:12:02.462Z,100417.20
2022-08-28T06:14:32.020Z,100411.40
2022-08-28T06:17:01.995Z,100405.60
2022-08-28T06:19:35.457Z,100404.00
2022-08-28T06:22:07.222Z,100404.40
2022-08-28T06:24:36.876Z,100403.00
2022-08-28T06:27:05.310Z,100402.40
2022-08-28T06:29:33.253Z,100406.40
2022-08-28T06:32:04.974Z,100405.60
2022-08-28T06:34:33.138Z,100403.40
2022-08-28T06:37:01.214Z,100406.00
2022-08-28T06:39:29.220Z,100409.80
2022-08-28T06:41:57.086Z,100409.00
2022-08-28T06:44:24.848Z,100412.20
2022-08-28T06:46:54.684Z,100409.00
2022-08-28T06:49:22.913Z,100406.60
2022-08-28T06:51:51.832Z,100410.60
2022-08-28T06:54:23.131Z,100412.00
2022-08-28T06:56:52.955Z,100415.00
2022-08-28T06:59:21.250Z,100414.40
2022-08-28T07:01:49.475Z,100416.20
2022-08-28T07:04:17.457Z,100421.80
2022-08-28T07:06:47.151Z,100424.40
2022-08-28T07:09:16.566Z,100424.20
2022-08-28T07:11:49.260Z,100422.00
2022-08-28T07:14:17.351Z,100423.60
2022-08-28T07:16:45.370Z,100425.00
2022-08-28T07:19:14.220Z,100424.00
2022-08-28T07:21:46.071Z,100423.40
2022-08-28T07:24:17.644Z,100422.40
2022-08-28T07:26:48.075Z,100425.20
2022-08-28T07:29:18.078Z,100424.00
2022-08-28T07:31:51.206Z,100424.40
2022-08-28T07:34:26.861Z,100423.60
2022-08-28T07:36:58.398Z,100425.40
2022-08-28T07:39:26.275Z,100421.60
2022-08-28T07:41:54.130Z,100428.40
2022-08-28T07:44:55.112Z,100429.00
2022-08-28T07:47:26.174Z,100425.40
2022-08-28T07:49:54.856Z,100427.00
2022-08-28T07:52:23.150Z,100428.40
2022-08-28T07:54:51.991Z,100434.40
2022-08-28T07:57:21.365Z,100433.00
2022-08-28T07:59:52.560Z,100438.60
2022-08-28T08:02:20.668Z,100433.80
2022-08-28T08:04:52.834Z,100438.80
2022-08-28T08:07:39.720Z,100439.80
2022-08-28T08:10:19.837Z,100434.20
2022-08-28T08:12:58.735Z,100440.00
2022-08-28T08:15:31.270Z,100444.00
2022-08-28T08:18:02.496Z,100442.40
2022-08-28T08:20:30.284Z,100440.00
2022-08-28T08:22:59.263Z,100441.80
2022-08-28T08:25:27.008Z,100436.60
2022-08-28T08:27:58.031Z,100437.60
2022-08-28T08:30:25.959Z,100438.60
2022-08-28T08:32:59.717Z,100441.40
2022-08-28T08:35:28.017Z,100438.80
2022-08-28T08:37:55.815Z,100441.60
2022-08-28T08:40:25.412Z,100440.20
2022-08-28T08:43:07.714Z,100443.20
2022-08-28T08:45:43.278Z,100443.80
2022-08-28T08:48:46.975Z,100445.60
2022-08-28T08:51:38.534Z,100448.60
2022-08-28T08:54:15.267Z,100446.20
2022-08-28T08:56:54.875Z,100445.20
2022-08-28T08:59:33.632Z,100443.60
2022-08-28T09:02:22.878Z,100451.40
2022-08-28T09:05:10.327Z,100454.80
2022-08-28T09:08:13.640Z,100451.00
2022-08-28T09:10:54.017Z,100458.00
2022-08-28T09:13:51.471Z,100456.40
2022-08-28T09:16:30.943Z,100448.60
2022-08-28T09:19:01.273Z,100453.80
2022-08-28T09:21:39.219Z,100451.80
2022-08-28T09:24:32.246Z,100452.80
2022-08-28T09:27:06.969Z,100452.00
2022-08-28T09:29:43.524Z,100451.00
2022-08-28T09:32:34.806Z,100450.20
2022-08-28T09:35:28.270Z,100454.60
2022-08-28T09:38:21.524Z,100453.40
2022-08-28T09:41:15.880Z,100456.40
2022-08-28T09:43:46.741Z,100454.20
2022-08-28T09:46:27.969Z,100451.80
2022-08-28T09:49:14.385Z,100452.00
2022-08-28T09:51:42.397Z,100447.40
2022-08-28T09:54:22.123Z,100445.80
2022-08-28T09:56:52.587Z,100448.40
2022-08-28T09:59:25.225Z,100449.60
2022-08-28T10:01:56.266Z,100449.60
2022-08-28T10:04:51.423Z,100446.60
2022-08-28T10:08:18.480Z,100447.60
2022-08-28T10:11:00.687Z,100450.80
2022-08-28T10:13:43.846Z,100450.00
2022-08-28T10:16:43.104Z,100451.80
2022-08-28T10:19:27.546Z,100451.20
2022-08-28T10:22:32.948Z,100446.20
2022-08-28T10:25:12.608Z,100443.80
2022-08-28T10:28:02.938Z,100442.20
2022-08-28T10:30:37.157Z,100445.60
2022-08-28T10:33:42.656Z,100441.60
2022-08-28T10:36:34.013Z,100440.40
2022-08-28T10:39:45.240Z,100447.20
2022-08-28T10:42:15.938Z,100447.20
2022-08-28T10:45:08.836Z,100449.40
2022-08-28T10:47:42.196Z,100447.20
2022-08-28T10:50:24.014Z,100450.00
2022-08-28T10:53:06.475Z,100450.40
2022-08-28T10:56:03.153Z,100451.60
2022-08-28T10:58:38.320Z,100449.00
2022-08-28T11:01:33.457Z,100450.80
2022-08-28T11:04:15.543Z,100453.00
2022-08-28T11:06:54.892Z,100449.80
2022-08-28T11:09:49.073Z,100451.60
2022-08-28T11:12:16.862Z,100457.40
2022-08-28T11:14:51.138Z,100457.60
2022-08-28T11:17:21.898Z,100455.20
2022-08-28T11:20:28.749Z,100458.40
2022-08-28T11:23:20.603Z,100462.00
2022-08-28T11:25:58.662Z,100468.20
2022-08-28T11:28:43.781Z,100468.80
2022-08-28T11:31:28.530Z,100463.40
2022-08-28T11:34:02.860Z,100471.40
2022-08-28T11:36:32.997Z,100473.60
2022-08-28T11:39:13.283Z,100479.80
2022-08-28T11:42:29.072Z,100491.60
2022-08-28T11:44:57.306Z,100496.00
2022-08-28T11:47:37.253Z,100503.60
2022-08-28T11:50:28.394Z,100509.80
2022-08-28T11:53:33.928Z,100503.00
2022-08-28T11:56:31.037Z,100514.20
2022-08-28T11:59:40.283Z,100515.80
2022-08-28T12:02:39.520Z,100524.40
2022-08-28T12:05:16.562Z,100526.80
2022-08-28T12:07:49.732Z,100525.60
2022-08-28T12:10:20.576Z,100526.40
2022-08-28T12:12:48.953Z,100526.80
2022-08-28T12:15:31.311Z,100527.00
2022-08-28T12:18:12.019Z,100531.80
2022-08-28T12:21:07.221Z,100535.60
2022-08-28T12:24:03.020Z,100538.60
2022-08-28T12:26:46.320Z,100545.80
2022-08-28T12:29:36.504Z,100544.20
2022-08-28T12:32:35.270Z,100547.40
2022-08-28T12:35:03.081Z,100550.80
2022-08-28T12:37:57.642Z,100557.80
2022-08-28T12:40:30.644Z,100558.60
2022-08-28T12:43:06.744Z,100561.60
2022-08-28T12:45:51.072Z,100555.80
2022-08-28T12:48:31.729Z,100553.20
2022-08-28T12:51:08.186Z,100551.80
2022-08-28T12:53:46.427Z,100550.20
2022-08-28T12:56:18.820Z,100545.80
2022-08-28T12:58:48.097Z,100550.60
2022-08-28T13:01:33.347Z,100553.20
2022-08-28T13:04:36.105Z,100553.60
2022-08-28T13:07:18.755Z,100560.20
2022-08-28T13:09:52.287Z,100559.80
2022-08-28T13:12:55.882Z,100564.80
2022-08-28T13:16:01.095Z,100567.60
2022-08-28T13:18:36.847Z,100566.00
2022-08-28T13:21:36.389Z,100564.20
2022-08-28T13:24:22.504Z,100562.40
2022-08-28T13:27:00.921Z,100567.80
2022-08-28T13:29:29.290Z,100571.00
2022-08-28T13:32:08.510Z,100568.00
2022-08-28T13:34:47.713Z,100573.00
2022-08-28T13:37:47.155Z,100576.80
2022-08-28T13:40:53.532Z,100586.40
2022-08-28T13:43:11.208Z,100576.80
2022-08-28T13:45:44.379Z,100578.00
2022-08-28T13:48:15.995Z,100567.20
2022-08-28T13:50:47.998Z,100556.60
2022-08-28T13:53:20.976Z,100554.60
2022-08-28T13:55:50.901Z,100545.20
2022-08-28T13:58:19.784Z,100540.80
2022-08-28T14:00:52.266Z,100539.80
2022-08-28T14:03:38.430Z,100539.40
2022-08-28T14:06:12.717Z,100543.40
2022-08-28T14:08:43.924Z,100561.60
2022-08-28T14:11:15.779Z,100575.60
2022-08-28T14:13:46.913Z,100586.40
2022-08-28T14:16:27.781Z,100576.80
2022-08-28T14:18:55.760Z,100560.00
2022-08-28T14:21:24.851Z,100546.20
2022-08-28T14:23:53.051Z,100540.40
2022-08-28T14:26:20.894Z,100530.80
2022-08-28T14:28:48.798Z,100529.80
2022-08-28T14:31:17.231Z,100535.80
2022-08-28T14:33:46.314Z,100540.80
2022-08-28T14:36:18.215Z,100541.20
2022-08-28T14:38:46.156Z,100541.00
2022-08-28T14:41:15.183Z,100544.40
2022-08-28T14:43:48.316Z,100538.40
2022-08-28T14:46:19.883Z,100536.80
2022-08-28T14:48:49.310Z,100539.00
2022-08-28T14:51:19.230Z,100546.60
2022-08-28T14:53:50.756Z,100556.60
2022-08-28T14:56:21.258Z,100565.20
2022-08-28T14:58:49.259Z,100563.60
2022-08-28T15:01:39.489Z,100563.40
2022-08-28T15:04:14.399Z,100560.00
2022-08-28T15:06:43.751Z,100559.00
2022-08-28T15:09:14.158Z,100554.40
2022-08-28T15:11:44.755Z,100549.00
2022-08-28T15:14:13.471Z,100540.60
2022-08-28T15:16:45.805Z,100534.40
2022-08-28T15:19:18.780Z,100533.60
2022-08-28T15:21:56.540Z,100531.20
2022-08-28T15:24:31.079Z,100531.00
2022-08-28T15:26:59.936Z,100547.00
2022-08-28T15:29:30.067Z,100550.40
2022-08-28T15:31:59.002Z,100547.20
2022-08-28T15:34:28.651Z,100551.20
2022-08-28T15:36:58.665Z,100548.80
2022-08-28T15:39:47.391Z,100543.80
2022-08-28T15:42:15.731Z,100549.40
2022-08-28T15:44:43.895Z,100552.00
2022-08-28T15:47:14.151Z,100555.20
2022-08-28T15:49:46.913Z,100544.60
2022-08-28T15:52:19.506Z,100547.80
2022-08-28T15:54:49.761Z,100551.20
2022-08-28T15:57:18.672Z,100548.40
2022-08-28T15:59:49.870Z,100547.20
2022-08-28T16:02:23.300Z,100548.00
2022-08-28T16:04:53.247Z,100548.80
2022-08-28T16:07:23.868Z,100550.00
2022-08-28T16:09:52.648Z,100551.80
2022-08-28T16:12:20.927Z,100544.20
2022-08-28T16:14:50.538Z,100557.40
2022-08-28T16:17:21.461Z,100557.00
2022-08-28T16:19:49.492Z,100557.40
2022-08-28T16:22:18.760Z,100560.80
2022-08-28T16:24:47.073Z,100565.20
2022-08-28T16:27:16.856Z,100568.20
2022-08-28T16:29:46.166Z,100568.20
2022-08-28T16:32:25.730Z,100571.20
2022-08-28T16:35:10.352Z,100572.20
2022-08-28T16:37:52.494Z,100580.80
2022-08-28T16:40:25.378Z,100577.00
2022-08-28T16:45:56.448Z,100576.80
2022-08-28T16:48:32.263Z,100587.40
2022-08-28T16:51:06.204Z,100591.40
2022-08-28T16:53:43.218Z,100598.60
2022-08-28T16:56:19.785Z,100603.20
2022-08-28T16:59:10.539Z,100611.20
2022-08-28T17:01:44.807Z,100611.20
2022-08-28T17:07:19.739Z,100624.20
2022-08-28T17:09:50.441Z,100622.60
2022-08-28T17:12:40.841Z,100623.60
2022-08-28T17:15:21.496Z,100624.80
2022-08-28T17:18:02.598Z,100625.40
2022-08-28T17:20:52.670Z,100628.40
2022-08-28T17:23:20.840Z,100630.80
2022-08-28T17:25:51.974Z,100627.80
2022-08-28T17:28:25.922Z,100620.00
2022-08-28T17:31:18.879Z,100624.40
2022-08-28T17:34:05.113Z,100620.80
2022-08-28T17:36:55.908Z,100623.60
2022-08-28T17:40:01.007Z,100624.00
2022-08-28T17:43:21.874Z,100622.20
2022-08-28T17:45:53.886Z,100627.60
2022-08-28T17:48:22.558Z,100633.20
2022-08-28T17:51:11.738Z,100634.60
2022-08-28T17:53:45.218Z,100637.60
2022-08-28T17:56:35.870Z,100634.20
2022-08-28T17:59:20.414Z,100639.60
2022-08-28T18:01:57.589Z,100643.60
2022-08-28T18:04:29.159Z,100643.20
2022-08-28T18:06:59.758Z,100642.00
2022-08-28T18:09:28.320Z,100634.80
2022-08-28T18:11:56.354Z,100641.00
2022-08-28T18:14:24.514Z,100641.20
2022-08-28T18:16:53.764Z,100642.20
2022-08-28T18:19:24.269Z,100651.40
2022-08-28T18:21:52.371Z,100651.40
2022-08-28T18:24:20.203Z,100659.00
2022-08-28T18:26:48.774Z,100662.40
2022-08-28T18:29:17.010Z,100659.20
2022-08-28T18:31:47.566Z,100664.60
2022-08-28T18:34:15.605Z,100664.20
2022-08-28T18:36:45.201Z,100660.40
2022-08-28T18:39:29.243Z,100665.20
2022-08-28T18:41:59.079Z,100669.20
2022-08-28T18:44:31.837Z,100665.20
2022-08-28T18:47:06.929Z,100668.00
2022-08-28T18:49:35.209Z,100670.40
2022-08-28T18:52:08.146Z,100668.60
2022-08-28T18:54:37.090Z,100667.20
2022-08-28T18:57:19.950Z,100667.40
2022-08-28T18:59:51.117Z,100665.40
2022-08-28T19:02:19.402Z,100663.00
2022-08-28T19:05:16.796Z,100665.00
2022-08-28T19:07:51.067Z,100661.00
2022-08-28T19:10:32.452Z,100663.80
2022-08-28T19:13:10.420Z,100660.80
2022-08-28T19:15:38.587Z,100661.40
2022-08-28T19:18:13.377Z,100655.80
2022-08-28T19:20:41.654Z,100664.00
2022-08-28T19:23:17.989Z,100664.00
2022-08-28T19:25:46.256Z,100664.20
2022-08-28T19:28:14.294Z,100667.00
2022-08-28T19:30:42.586Z,100665.60
2022-08-28T19:33:12.878Z,100667.40
2022-08-28T19:35:40.839Z,100672.80
2022-08-28T19:38:12.182Z,100671.60
2022-08-28T19:40:44.423Z,100673.60
2022-08-28T19:43:16.901Z,100678.40
2022-08-28T19:45:49.552Z,100682.60
2022-08-28T19:48:22.613Z,100685.60
2022-08-28T19:51:23.991Z,100683.80
2022-08-28T19:53:58.343Z,100681.80
2022-08-28T19:56:33.855Z,100683.40
2022-08-28T19:59:09.452Z,100687.00
2022-08-28T20:01:43.641Z,100681.80
2022-08-28T20:04:19.504Z,100682.00
2022-08-28T20:06:48.189Z,100681.00
2022-08-28T20:09:17.588Z,100681.80
2022-08-28T20:11:47.184Z,100680.60
2022-08-28T20:14:19.520Z,100695.60
2022-08-28T20:16:51.144Z,100696.40
2022-08-28T20:19:20.241Z,100693.80
2022-08-28T20:21:50.172Z,100694.40
2022-08-28T20:24:23.828Z,100694.20
2022-08-28T20:26:53.332Z,100689.40
2022-08-28T20:29:21.872Z,100685.80
2022-08-28T20:31:50.203Z,100689.60
2022-08-28T20:34:20.141Z,100684.80
2022-08-28T20:36:50.267Z,100687.20
2022-08-28T20:39:20.203Z,100691.80
2022-08-28T20:41:49.534Z,100689.00
2022-08-28T20:44:20.230Z,100688.40
2022-08-28T20:46:51.455Z,100687.80
2022-08-28T20:49:22.375Z,100687.20
2022-08-28T20:51:57.022Z,100689.80
2022-08-28T20:54:42.105Z,100687.00
2022-08-28T20:57:13.832Z,100685.40
2022-08-28T20:59:44.688Z,100686.00
2022-08-28T21:02:21.569Z,100677.40
2022-08-28T21:04:51.321Z,100679.40
2022-08-28T21:07:22.352Z,100676.00
2022-08-28T21:10:05.129Z,100677.60
2022-08-28T21:12:38.898Z,100675.80
2022-08-28T21:15:11.353Z,100674.40
2022-08-28T21:17:41.889Z,100672.20
2022-08-28T21:20:14.202Z,100669.00
2022-08-28T21:22:43.259Z,100673.80
2022-08-28T21:25:12.160Z,100670.60
2022-08-28T21:27:40.250Z,100674.60
2022-08-28T21:30:13.255Z,100677.80
2022-08-28T21:32:41.571Z,100679.00
2022-08-28T21:35:12.789Z,100680.40
2022-08-28T21:37:42.429Z,100681.20
2022-08-28T21:40:14.347Z,100688.00
2022-08-28T21:42:42.305Z,100694.40
2022-08-28T21:45:12.419Z,100695.80
2022-08-28T21:47:42.284Z,100695.60
2022-08-28T21:50:11.941Z,100700.60
2022-08-28T21:52:40.043Z,100698.60
2022-08-28T21:55:12.946Z,100693.00
2022-08-28T21:57:41.917Z,100698.80
2022-08-28T22:00:21.014Z,100702.40
2022-08-28T22:02:50.262Z,100712.60
2022-08-28T22:05:18.551Z,100719.00
2022-08-28T22:07:46.478Z,100730.60
2022-08-28T22:10:15.244Z,100744.80
2022-08-28T22:12:43.065Z,100751.80
2022-08-28T22:15:11.123Z,100756.00
2022-08-28T22:17:38.950Z,100758.80
2022-08-28T22:20:07.484Z,100755.00
2022-08-28T22:22:53.927Z,100754.40
2022-08-28T22:25:21.929Z,100758.20
2022-08-28T22:27:49.746Z,100752.00
2022-08-28T22:30:17.887Z,100746.00
2022-08-28T22:32:46.192Z,100746.00
2022-08-28T22:35:14.060Z,100744.40
2022-08-28T22:37:41.834Z,100744.40
2022-08-28T22:40:13.481Z,100748.00
2022-08-28T22:42:42.785Z,100743.00
2022-08-28T22:45:10.901Z,100741.20
2022-08-28T22:47:39.887Z,100745.60
2022-08-28T22:50:09.410Z,100745.20
2022-08-28T22:52:38.248Z,100744.80
2022-08-28T22:55:12.375Z,100749.80
2022-08-28T22:57:40.561Z,100749.40
2022-08-28T23:00:15.438Z,100747.60
2022-08-28T23:02:45.108Z,100740.40
2022-08-28T23:05:14.874Z,100733.60
2022-08-28T23:07:43.301Z,100731.80
2022-08-28T23:10:14.801Z,100731.20
2022-08-28T23:12:43.532Z,100727.20
2022-08-28T23:15:16.313Z,100727.60
2022-08-28T23:17:45.407Z,100736.20
2022-08-28T23:20:19.164Z,100744.40
2022-08-28T23:22:47.656Z,100752.20
2022-08-28T23:25:23.487Z,100759.40
2022-08-28T23:27:54.350Z,100760.00
2022-08-28T23:30:23.959Z,100759.60
2022-08-28T23:32:53.061Z,100762.60
2022-08-28T23:35:21.692Z,100763.00
2022-08-28T23:37:51.948Z,100768.80
2022-08-28T23:40:24.211Z,100774.60
2022-08-28T23:42:53.557Z,100769.40
2022-08-28T23:45:21.798Z,100765.40
2022-08-28T23:47:50.279Z,100762.80
2022-08-28T23:50:22.572Z,100766.20
2022-08-28T23:52:50.822Z,100763.60
2022-08-28T23:55:20.951Z,100762.60
2022-08-28T23:57:52.372Z,100750.40
